The Blue Peter — 2FZY3 — position and weather

sailwx.info

Track history (hours):
 
Tides and Currents Weather Stations Pressure Air Temp Water Temp Dewpoint Dewpoint Depression Visibility Wind Speed Wind Dir Waves Ship Positions

The Blue Peter

Last reported at 2018-May-31 20:25 UTC. Time now 2018-Jun-19 10:54 UTC.
Position N 41°10' W 072°20'.
Warning: this ship's position is 18 days out of date.

Length 20 m.

MMSI: 235095651.

Date/timePositionNaut miles runAvg speedWind from/ knotsBaromVisibWave heightAir tempDewpointWater temp
2018-May-31 20:25N 41°10' W 072°20'4 8.8
2018-May-31 19:59N 41°10' W 072°25'4 8.4
2018-May-31 19:28N 41°08' W 072°30'  
2018-May-29 12:55N 40°45' W 073°57'4 8.2
2018-May-29 12:26N 40°42' W 074°00'2 4.0
2018-May-29 11:58N 40°43' W 074°02'0 0.0
2018-May-29 11:28N 40°43' W 074°02'0 0.1
2018-May-29 10:58N 40°43' W 074°02'0 0.0
2018-May-29 10:28N 40°43' W 074°02'0 0.0
2018-May-29 09:58N 40°43' W 074°02'0 0.0
2018-May-29 09:25N 40°43' W 074°02'0 0.0
2018-May-29 08:58N 40°43' W 074°02'0 0.0
2018-May-29 08:28N 40°43' W 074°02'0 0.0
2018-May-29 07:58N 40°43' W 074°02'0 0.0
2018-May-29 07:28N 40°43' W 074°02'0 0.0
2018-May-29 06:58N 40°43' W 074°02'0 0.0
2018-May-29 06:28N 40°43' W 074°02'0 0.0
2018-May-29 05:58N 40°43' W 074°02'0 0.0
2018-May-29 05:28N 40°43' W 074°02'0 0.0
2018-May-29 05:00N 40°43' W 074°02'0 0.0
2018-May-29 04:30N 40°43' W 074°02'1 1.3
2018-May-29 04:00N 40°42' W 074°02'3 6.9
2018-May-29 03:30N 40°39' W 074°03'50 7.0
2018-May-28 20:22N 39°49' W 073°58'3 8.0
2018-May-28 19:59N 39°46' W 073°59'4 7.8
2018-May-28 19:29N 39°42' W 074°01'4 7.8
2018-May-28 18:59N 39°38' W 074°02'4 7.4
2018-May-28 18:29N 39°35' W 074°03'  
Track history (hours):
 
Tides and Currents Weather Stations Pressure Air Temp Water Temp Dewpoint Dewpoint Depression Visibility Wind Speed Wind Dir Waves Ship Positions

The Blue Peter

Last reported at 2018-May-31 20:25 UTC. Time now 2018-Jun-19 10:54 UTC.
Position N 41°10' W 072°20'.
Warning: this ship's position is 18 days out of date.

Length 20 m.

MMSI: 235095651.

Date/timePositionNaut miles runAvg speedWind from/ knotsBaromVisibWave heightAir tempDewpointWater temp
2018-May-31 20:25N 41°10' W 072°20'4 8.8
2018-May-31 19:59N 41°10' W 072°25'4 8.4
2018-May-31 19:28N 41°08' W 072°30'  
2018-May-29 12:55N 40°45' W 073°57'4 8.2
2018-May-29 12:26N 40°42' W 074°00'2 4.0
2018-May-29 11:58N 40°43' W 074°02'0 0.0
2018-May-29 11:28N 40°43' W 074°02'0 0.1
2018-May-29 10:58N 40°43' W 074°02'0 0.0
2018-May-29 10:28N 40°43' W 074°02'0 0.0
2018-May-29 09:58N 40°43' W 074°02'0 0.0
2018-May-29 09:25N 40°43' W 074°02'0 0.0
2018-May-29 08:58N 40°43' W 074°02'0 0.0
2018-May-29 08:28N 40°43' W 074°02'0 0.0
2018-May-29 07:58N 40°43' W 074°02'0 0.0
2018-May-29 07:28N 40°43' W 074°02'0 0.0
2018-May-29 06:58N 40°43' W 074°02'0 0.0
2018-May-29 06:28N 40°43' W 074°02'0 0.0
2018-May-29 05:58N 40°43' W 074°02'0 0.0
2018-May-29 05:28N 40°43' W 074°02'0 0.0
2018-May-29 05:00N 40°43' W 074°02'0 0.0
2018-May-29 04:30N 40°43' W 074°02'1 1.3
2018-May-29 04:00N 40°42' W 074°02'3 6.9
2018-May-29 03:30N 40°39' W 074°03'50 7.0
2018-May-28 20:22N 39°49' W 073°58'3 8.0
2018-May-28 19:59N 39°46' W 073°59'4 7.8
2018-May-28 19:29N 39°42' W 074°01'4 7.8
2018-May-28 18:59N 39°38' W 074°02'4 7.4
2018-May-28 18:29N 39°35' W 074°03'  

Dump ship's entire track history